TAF Text Data
IDs:
Format:
Raw Decoded Include METAR

Data at: 0605 UTC 24 Jan 2019

KABY 240525Z 2406/2506 19014G22KT 3SM SHRA BKN025
  FM240900 27012G20KT P6SM BKN015
  FM241800 30010KT P6SM SCT030 BKN250